Time;durP1;ratioP1;P1;durP2;ratioP2;P2;SDS_P1;SDS_P2;PMS_P1;PMS_P2;Temp;Humidity;BMP_temperature;BMP_pressure;BME280_temperature;BME280_humidity;BME280_pressure;Samples;Min_cycle;Max_cycle;Signal;HPM_P1;HPM_P2
2021/10/14 00:31:04;;;;;;;10.57;9.47;;;5.00;99.90;;;;;;6254532;23;20605;-95
2021/10/14 00:33:32;;;;;;;9.93;9.10;;;4.80;99.90;;;;;;6256839;23;20665;-96
2021/10/14 00:36:01;;;;;;;10.20;9.20;;;4.80;99.90;;;;;;6258857;23;20586;-96
2021/10/14 00:38:39;;;;;;;10.03;9.30;;;4.80;99.90;;;;;;6254280;23;20663;-96
2021/10/14 00:41:11;;;;;;;10.40;9.50;;;4.70;99.90;;;;;;6227280;23;20581;-95
2021/10/14 00:44:18;;;;;;;9.77;8.97;;;4.80;99.90;;;;;;6224597;23;20609;-95
2021/10/14 00:47:13;;;;;;;8.43;7.63;;;4.90;99.90;;;;;;6126389;23;20596;-95
2021/10/14 00:49:47;;;;;;;10.17;9.33;;;4.80;99.90;;;;;;6216974;23;20613;-95
2021/10/14 00:52:15;;;;;;;10.33;9.50;;;4.80;99.90;;;;;;6216267;23;20614;-93
2021/10/14 00:54:43;;;;;;;10.20;8.27;;;4.80;99.90;;;;;;6215075;23;20583;-94
2021/10/14 00:57:11;;;;;;;8.70;8.03;;;4.80;99.90;;;;;;6214105;23;20673;-93
2021/10/14 01:00:17;;;;;;;8.90;8.10;;;4.80;99.90;;;;;;6216612;23;21164;-96
2021/10/14 01:03:05;;;;;;;9.70;8.50;;;5.00;99.90;;;;;;6205643;23;20613;-94
2021/10/14 01:05:54;;;;;;;9.13;8.33;;;4.90;99.90;;;;;;6217787;23;20584;-95
2021/10/14 01:08:54;;;;;;;;;;;;;;;;;;;;;
2021/10/14 01:11:52;;;;;;;9.63;8.23;;;4.90;99.90;;;;;;6217019;23;20554;-95
2021/10/14 01:17:29;;;;;;;10.37;9.30;;;4.90;99.90;;;;;;6204171;23;20618;-96
2021/10/14 01:20:03;;;;;;;9.70;8.80;;;4.80;99.90;;;;;;6219958;23;20574;-94
2021/10/14 01:22:58;;;;;;;8.97;8.27;;;4.80;99.90;;;;;;6230290;23;20580;-95
2021/10/14 01:29:18;;;;;;;9.43;8.67;;;4.90;99.90;;;;;;6226049;23;20590;-95
2021/10/14 01:34:35;;;;;;;9.67;8.77;;;4.90;99.90;;;;;;6220324;23;20587;-95
2021/10/14 01:37:03;;;;;;;9.17;8.27;;;4.80;99.90;;;;;;6215117;23;20602;-95
2021/10/14 01:39:31;;;;;;;10.20;9.43;;;4.70;99.90;;;;;;6218327;23;20578;-96
2021/10/14 01:42:00;;;;;;;10.00;9.00;;;4.80;99.90;;;;;;6223163;23;20593;-94
2021/10/14 01:48:56;;;;;;;8.63;7.93;;;4.90;99.90;;;;;;6237484;23;20550;-96
2021/10/14 01:51:57;;;;;;;10.10;9.20;;;4.90;99.90;;;;;;6225082;23;20589;-96
2021/10/14 01:54:47;;;;;;;9.87;8.77;;;5.00;99.90;;;;;;6240802;23;20617;-95
2021/10/14 01:57:15;;;;;;;9.37;8.67;;;5.10;99.90;;;;;;6219215;23;20617;-96
2021/10/14 01:59:45;;;;;;;10.30;9.37;;;5.00;99.90;;;;;;6215811;23;20586;-95
2021/10/14 02:02:26;;;;;;;11.30;10.30;;;5.00;99.90;;;;;;6220053;23;21087;-95
2021/10/14 02:08:09;;;;;;;10.63;9.73;;;5.20;99.90;;;;;;5130539;27;25148;-94
2021/10/14 02:10:42;;;;;;;12.47;11.10;;;5.20;99.90;;;;;;5131773;27;20644;-94
2021/10/14 02:13:14;;;;;;;12.27;11.23;;;5.20;99.90;;;;;;5134470;27;20638;-94
2021/10/14 02:15:42;;;;;;;10.70;9.90;;;5.20;99.90;;;;;;5123875;28;20672;-94
2021/10/14 02:27:01;;;;;;;9.97;9.07;;;5.20;99.90;;;;;;5103553;28;21099;-94
2021/10/14 02:36:43;;;;;;;;;;;;;;;;;;;;;
2021/10/14 02:56:42;;;;;;;8.97;8.27;;;5.00;99.90;;;;;;5067845;28;20655;-95
2021/10/14 03:03:21;;;;;;;9.23;8.47;;;4.80;99.90;;;;;;5033558;28;20638;-94
2021/10/14 03:06:00;;;;;;;8.07;7.43;;;4.80;99.90;;;;;;5021561;28;21268;-96
2021/10/14 03:12:09;;;;;;;9.07;8.27;;;4.80;99.90;;;;;;5002525;28;20692;-95
2021/10/14 03:21:01;;;;;;;264.87;22.27;;;4.90;99.90;;;;;;4986563;28;20617;-96
2021/10/14 03:23:35;;;;;;;283.27;22.60;;;4.90;99.90;;;;;;5062158;28;21249;-95
2021/10/14 03:26:25;;;;;;;26.63;10.77;;;4.90;99.90;;;;;;5081477;28;20726;-94
2021/10/14 08:43:51;;;;;;;8.10;5.00;;;8.70;99.90;;;;;;5038523;23;20695;-91
2021/10/14 08:46:20;;;;;;;5.63;5.13;;;8.90;99.90;;;;;;4883012;29;20697;-92
2021/10/14 08:48:47;;;;;;;6.00;5.50;;;8.90;99.90;;;;;;4893357;29;20658;-91
2021/10/14 08:51:15;;;;;;;6.60;5.93;;;9.20;99.90;;;;;;4903343;29;20653;-91
2021/10/14 08:53:42;;;;;;;5.80;5.30;;;9.60;99.90;;;;;;4906791;29;20692;-91
2021/10/14 08:56:11;;;;;;;10.13;5.40;;;9.90;99.90;;;;;;4898264;29;20708;-92
2021/10/14 08:58:38;;;;;;;8.47;4.87;;;9.90;99.90;;;;;;4899963;29;20641;-92
2021/10/14 09:01:10;;;;;;;5.80;5.20;;;10.00;99.90;;;;;;4896735;29;20740;-93
2021/10/14 09:10:18;;;;;;;5.90;5.40;;;10.70;99.90;;;;;;4922022;29;20656;-96
2021/10/14 09:12:55;;;;;;;5.47;4.77;;;10.60;99.90;;;;;;4911156;29;20656;-96
2021/10/14 09:29:58;;;;;;;5.20;4.80;;;11.90;99.90;;;;;;4901899;29;20701;-94
2021/10/14 09:35:25;;;;;;;6.53;5.37;;;12.20;99.90;;;;;;4892443;29;20669;-95
2021/10/14 09:41:03;;;;;;;4.47;4.07;;;12.80;99.90;;;;;;4887800;29;20641;-96
2021/10/14 09:46:49;;;;;;;7.50;4.37;;;12.70;99.90;;;;;;4892508;29;20646;-95
2021/10/14 09:50:09;;;;;;;;;;;;;;;;;;;;;
2021/10/14 09:53:21;;;;;;;6.30;4.50;;;12.80;99.90;;;;;;4881962;29;20726;-95
2021/10/14 13:06:16;;;;;;;3.50;2.70;;;19.40;83.60;;;;;;5060622;23;20692;-96
2021/10/14 13:13:49;;;;;;;3.83;2.50;;;19.30;88.00;;;;;;4886942;29;21103;-96
2021/10/14 13:16:17;;;;;;;3.70;3.10;;;19.10;90.00;;;;;;4892807;29;21197;-96
2021/10/14 13:18:52;;;;;;;3.60;2.90;;;18.60;91.50;;;;;;4887930;29;20664;-96
2021/10/14 13:21:24;;;;;;;4.23;2.90;;;18.70;90.90;;;;;;4891180;29;20636;-96
2021/10/14 13:23:54;;;;;;;6.03;2.70;;;18.50;90.10;;;;;;4887417;29;20706;-96
2021/10/14 13:26:24;;;;;;;3.23;2.50;;;18.20;90.30;;;;;;4891866;29;20666;-96
2021/10/14 13:31:35;;;;;;;3.63;2.43;;;17.80;92.40;;;;;;4896800;29;20625;-96
2021/10/14 13:34:03;;;;;;;3.90;2.90;;;17.80;93.10;;;;;;4885568;29;21026;-95
2021/10/14 13:37:00;;;;;;;3.77;2.67;;;17.80;92.00;;;;;;4890645;29;20638;-96
2021/10/14 13:39:31;;;;;;;3.43;2.67;;;17.90;95.30;;;;;;4893706;29;20629;-96
2021/10/14 13:42:02;;;;;;;3.40;2.13;;;18.20;93.50;;;;;;4898453;29;20670;-96
2021/10/14 13:44:45;;;;;;;3.60;2.37;;;18.20;92.10;;;;;;4895351;29;20648;-96
2021/10/14 13:47:17;;;;;;;5.07;2.53;;;18.40;92.90;;;;;;4895465;29;20644;-96
2021/10/14 13:49:51;;;;;;;4.17;3.77;;;18.50;93.50;;;;;;4898212;29;20748;-96
2021/10/14 13:52:36;;;;;;;3.93;2.80;;;18.40;92.90;;;;;;4901393;29;20666;-96
2021/10/14 14:00:24;;;;;;;3.13;2.83;;;18.90;92.00;;;;;;4895954;29;20629;-96
2021/10/14 14:02:51;;;;;;;4.60;2.87;;;18.90;91.20;;;;;;4903265;29;20664;-96
2021/10/14 14:05:19;;;;;;;6.50;3.27;;;18.80;91.50;;;;;;4893643;29;20630;-94
2021/10/14 14:07:51;;;;;;;4.23;2.20;;;18.20;93.20;;;;;;4883959;29;20623;-95
2021/10/14 14:10:20;;;;;;;4.73;2.90;;;18.50;94.40;;;;;;4886180;29;21203;-96
2021/10/14 14:12:54;;;;;;;5.50;2.20;;;18.60;91.90;;;;;;4894793;29;20673;-96
2021/10/14 14:15:29;;;;;;;5.13;2.50;;;18.60;91.40;;;;;;4875895;29;20653;-96
2021/10/14 14:18:06;;;;;;;2.60;2.20;;;18.40;94.50;;;;;;4878332;29;20661;-95
2021/10/14 14:21:01;;;;;;;3.97;2.10;;;18.30;94.00;;;;;;4874296;29;21486;-96
2021/10/14 14:26:38;;;;;;;3.60;2.07;;;20.20;91.70;;;;;;4871044;29;20710;-95
2021/10/14 14:29:10;;;;;;;2.10;1.90;;;21.60;86.30;;;;;;4878473;29;21007;-95
2021/10/14 14:31:46;;;;;;;2.50;2.23;;;21.30;84.90;;;;;;4873514;29;20653;-96
2021/10/14 14:34:16;;;;;;;3.00;2.20;;;21.10;84.80;;;;;;4876373;29;20661;-96
2021/10/14 14:36:43;;;;;;;4.13;2.17;;;20.50;88.00;;;;;;4869496;29;20658;-95
2021/10/14 14:39:12;;;;;;;4.27;2.53;;;21.10;86.20;;;;;;4868586;29;20669;-95
2021/10/14 14:41:43;;;;;;;4.73;2.90;;;21.70;81.80;;;;;;4867299;29;20645;-95
2021/10/14 14:44:12;;;;;;;3.80;2.87;;;21.90;80.40;;;;;;4869822;29;20651;-94
2021/10/14 14:46:39;;;;;;;4.73;4.17;;;22.50;77.70;;;;;;4872316;29;20673;-93
2021/10/14 14:49:14;;;;;;;8.07;2.80;;;22.80;79.70;;;;;;4868842;29;20705;-94
2021/10/14 14:51:42;;;;;;;4.10;2.60;;;22.60;77.10;;;;;;4869626;29;20676;-94
2021/10/14 14:54:14;;;;;;;3.97;2.30;;;22.50;76.40;;;;;;4871736;29;20653;-94
2021/10/14 14:56:41;;;;;;;5.70;2.70;;;22.10;78.60;;;;;;4872566;29;20773;-94
2021/10/14 14:59:08;;;;;;;4.23;2.40;;;22.00;80.20;;;;;;4866205;29;20708;-95
2021/10/14 15:01:42;;;;;;;7.00;2.43;;;22.10;80.70;;;;;;4868421;29;20749;-95
2021/10/14 15:04:27;;;;;;;3.00;1.77;;;22.50;79.20;;;;;;4869775;29;21174;-95
2021/10/14 15:07:13;;;;;;;2.60;1.77;;;22.70;80.40;;;;;;4869315;29;20736;-95
2021/10/14 15:09:44;;;;;;;2.63;2.00;;;22.80;79.50;;;;;;4873440;29;20642;-95
2021/10/14 15:12:17;;;;;;;3.23;2.43;;;22.50;78.50;;;;;;4871134;29;20725;-95
2021/10/14 15:14:45;;;;;;;5.67;2.17;;;22.50;80.50;;;;;;4876252;29;20645;-95
2021/10/14 15:17:16;;;;;;;2.77;1.73;;;22.60;80.10;;;;;;4868619;29;21244;-95
2021/10/14 15:19:48;;;;;;;3.57;2.30;;;22.50;79.70;;;;;;4880761;29;20644;-94
2021/10/14 15:22:28;;;;;;;2.67;1.80;;;22.60;78.60;;;;;;4876649;29;20642;-95
2021/10/14 15:24:58;;;;;;;3.13;2.23;;;22.80;75.70;;;;;;4874239;29;21084;-95
2021/10/14 15:27:28;;;;;;;5.90;2.10;;;22.40;77.60;;;;;;4872349;29;20662;-95
2021/10/14 15:29:58;;;;;;;4.20;2.50;;;22.00;78.70;;;;;;4883685;29;20695;-95
2021/10/14 15:32:30;;;;;;;2.60;1.70;;;22.60;76.90;;;;;;4868134;29;20639;-95
2021/10/14 15:37:50;;;;;;;2.70;1.70;;;22.50;78.40;;;;;;4856186;29;20743;-95
2021/10/14 15:40:31;;;;;;;3.20;2.20;;;22.60;79.30;;;;;;4874428;29;20697;-95
2021/10/14 15:43:06;;;;;;;6.77;2.93;;;22.50;81.20;;;;;;4882197;29;20638;-95
2021/10/14 15:45:42;;;;;;;4.43;2.20;;;22.10;83.50;;;;;;4892346;29;20665;-96
2021/10/14 15:48:11;;;;;;;4.70;1.73;;;21.80;84.00;;;;;;4887694;29;20642;-96
2021/10/14 15:50:43;;;;;;;4.90;2.20;;;21.60;85.40;;;;;;4891870;29;20647;-96
2021/10/14 15:53:26;;;;;;;4.10;1.80;;;21.50;86.10;;;;;;4892908;29;20634;-96
2021/10/14 15:56:19;;;;;;;3.40;1.63;;;21.20;85.80;;;;;;4889099;29;20629;-95
2021/10/14 15:58:46;;;;;;;1.90;1.60;;;19.00;93.10;;;;;;4881381;29;20780;-95
2021/10/14 16:01:17;;;;;;;2.50;1.67;;;17.70;98.20;;;;;;4875385;29;20699;-95
2021/10/14 16:03:47;;;;;;;4.00;1.90;;;17.10;99.90;;;;;;4877621;29;20905;-95
2021/10/14 16:06:17;;;;;;;1.87;1.70;;;16.60;99.90;;;;;;4877309;29;20631;-96
2021/10/14 16:08:45;;;;;;;4.13;1.67;;;16.10;99.90;;;;;;4870229;29;20711;-96
2021/10/14 16:11:15;;;;;;;4.93;2.00;;;15.70;99.90;;;;;;4878252;29;20740;-94
2021/10/14 16:13:52;;;;;;;4.20;1.60;;;15.40;99.90;;;;;;4884504;29;20665;-95
2021/10/14 16:19:07;;;;;;;3.57;1.80;;;15.10;99.90;;;;;;4874919;29;20670;-96
2021/10/14 16:21:34;;;;;;;3.10;1.53;;;14.70;99.90;;;;;;4870094;29;20731;-96
2021/10/14 16:24:04;;;;;;;4.87;1.90;;;14.40;99.90;;;;;;4871057;29;20666;-94
2021/10/14 16:29:30;;;;;;;3.13;1.77;;;13.80;99.90;;;;;;4882526;29;20619;-95
2021/10/14 16:40:19;;;;;;;2.70;2.20;;;12.90;99.90;;;;;;4891314;29;20662;-96
2021/10/14 16:42:55;;;;;;;5.07;2.47;;;12.70;99.90;;;;;;4897208;29;20634;-96
2021/10/14 16:45:40;;;;;;;3.70;1.93;;;12.50;99.90;;;;;;4887810;29;20674;-95
2021/10/14 16:50:52;;;;;;;2.27;1.80;;;12.00;99.90;;;;;;4872580;29;20995;-95
2021/10/14 16:53:30;;;;;;;2.80;1.87;;;11.90;99.90;;;;;;4872317;29;20663;-95
2021/10/14 16:56:01;;;;;;;3.80;2.77;;;11.80;99.90;;;;;;4877555;29;20677;-95
2021/10/14 16:58:44;;;;;;;3.53;2.53;;;11.60;99.90;;;;;;4878974;29;20674;-95
2021/10/14 17:01:15;;;;;;;3.53;2.00;;;11.50;99.90;;;;;;4876442;29;20760;-95
2021/10/14 17:03:52;;;;;;;4.30;2.40;;;11.40;99.90;;;;;;4875205;29;20670;-94
2021/10/14 17:06:21;;;;;;;2.90;2.10;;;11.20;99.90;;;;;;4871643;29;20709;-95
2021/10/14 17:08:50;;;;;;;3.47;2.60;;;11.10;99.90;;;;;;4874475;29;20642;-95
2021/10/14 17:11:26;;;;;;;2.93;2.13;;;11.00;99.90;;;;;;4878185;29;20639;-96
2021/10/14 17:13:55;;;;;;;2.83;2.40;;;10.90;99.90;;;;;;4880120;29;20677;-95
2021/10/14 17:16:22;;;;;;;3.90;2.20;;;10.80;99.90;;;;;;4874371;29;20729;-95
2021/10/14 17:18:52;;;;;;;3.40;2.07;;;10.60;99.90;;;;;;4873214;29;20765;-96
2021/10/14 17:21:34;;;;;;;3.83;2.10;;;10.50;99.90;;;;;;4870883;29;21191;-95
2021/10/14 17:36:03;;;;;;;5.97;2.37;;;10.20;99.90;;;;;;4880909;29;20657;-95
2021/10/14 17:38:32;;;;;;;4.47;2.47;;;10.10;99.90;;;;;;4888908;29;20697;-96
2021/10/14 17:41:01;;;;;;;3.37;2.23;;;10.00;99.90;;;;;;4885919;29;20649;-96
2021/10/14 17:43:38;;;;;;;4.30;2.03;;;10.00;99.90;;;;;;4890052;29;20641;-95
2021/10/14 17:46:20;;;;;;;3.93;2.40;;;10.00;99.90;;;;;;4874025;29;20650;-95
2021/10/14 17:48:48;;;;;;;5.80;2.60;;;9.90;99.90;;;;;;4866514;29;20638;-96
2021/10/14 17:51:18;;;;;;;3.90;2.90;;;9.80;99.90;;;;;;4882735;29;20607;-95
2021/10/14 17:53:46;;;;;;;2.87;2.33;;;9.80;99.90;;;;;;4888592;29;20651;-95
2021/10/14 17:56:13;;;;;;;3.87;2.50;;;9.70;99.90;;;;;;4894056;29;21658;-95
2021/10/14 17:58:42;;;;;;;5.10;3.10;;;9.60;99.90;;;;;;4872096;29;20671;-95
2021/10/14 18:01:13;;;;;;;2.40;2.20;;;9.50;99.90;;;;;;4871490;29;20670;-95
2021/10/14 18:03:51;;;;;;;2.87;2.67;;;9.50;99.90;;;;;;4863430;29;20682;-96
